Grand View, Canada
Current Conditions -  °F | °C
As of 6:00 AM on Friday 31 Oct 2014 (Local Time) from CYDN Reporting Station
Clear Clear  
Wind Chill:   Ceiling: Unl
Heat Index: 14°   Visibility: 9mi
Dew Point: 12°   Wind: 6mph
Humidity: 93%   Direction: 150°SSE
Pressure: 30.52"   Gusts: NA
Location:  51.17°N, 100.7°W
Report Text: CYDN 311100Z AUTO 15005KT 9SM CLR M10/M11 A3052 RMK SLP357
Loading
Personal Weather Stations






























Interactive Weather Map
Tropical Storm Tracking
New forecast layout! Learn more

10-Day Weather Forecast

Advertisements
Track Severe Weather on mobile